sensor_id;sensor_type;location;lat;lon;timestamp;P1;durP1;ratioP1;P2;durP2;ratioP2
29006;SDS011;16104;48.642;9.008;2023-03-04T00:04:09;50.80;;;26.42;;
29006;SDS011;16104;48.642;9.008;2023-03-04T00:09:04;44.85;;;23.75;;
29006;SDS011;16104;48.642;9.008;2023-03-04T00:14:00;49.67;;;23.20;;
29006;SDS011;16104;48.642;9.008;2023-03-04T00:18:55;47.88;;;23.67;;
29006;SDS011;16104;48.642;9.008;2023-03-04T00:23:51;58.13;;;28.17;;
29006;SDS011;16104;48.642;9.008;2023-03-04T00:28:47;45.85;;;25.10;;
29006;SDS011;16104;48.642;9.008;2023-03-04T00:33:42;45.47;;;23.08;;
29006;SDS011;16104;48.642;9.008;2023-03-04T00:38:38;49.13;;;25.33;;
29006;SDS011;16104;48.642;9.008;2023-03-04T00:43:33;43.88;;;24.23;;
29006;SDS011;16104;48.642;9.008;2023-03-04T00:48:29;45.20;;;23.02;;
29006;SDS011;16104;48.642;9.008;2023-03-04T00:53:25;44.15;;;24.10;;
29006;SDS011;16104;48.642;9.008;2023-03-04T00:58:20;49.58;;;26.00;;
29006;SDS011;16104;48.642;9.008;2023-03-04T02:04:21;39.33;;;22.00;;
29006;SDS011;16104;48.642;9.008;2023-03-04T02:09:19;45.83;;;23.65;;
29006;SDS011;16104;48.642;9.008;2023-03-04T02:14:15;42.00;;;21.27;;
29006;SDS011;16104;48.642;9.008;2023-03-04T03:05:00;38.17;;;19.45;;
29006;SDS011;16104;48.642;9.008;2023-03-04T03:09:55;34.88;;;18.63;;
29006;SDS011;16104;48.642;9.008;2023-03-04T03:14:51;37.25;;;19.05;;
29006;SDS011;16104;48.642;9.008;2023-03-04T04:01:24;36.38;;;18.02;;
29006;SDS011;16104;48.642;9.008;2023-03-04T04:06:19;35.72;;;17.75;;
29006;SDS011;16104;48.642;9.008;2023-03-04T04:11:15;35.47;;;19.33;;
29006;SDS011;16104;48.642;9.008;2023-03-04T04:16:10;39.30;;;19.48;;
29006;SDS011;16104;48.642;9.008;2023-03-04T04:21:06;47.67;;;22.52;;
29006;SDS011;16104;48.642;9.008;2023-03-04T04:26:01;43.50;;;22.52;;
29006;SDS011;16104;48.642;9.008;2023-03-04T04:30:57;43.17;;;21.40;;
29006;SDS011;16104;48.642;9.008;2023-03-04T04:35:53;42.28;;;20.90;;
29006;SDS011;16104;48.642;9.008;2023-03-04T04:40:49;39.08;;;20.58;;
29006;SDS011;16104;48.642;9.008;2023-03-04T04:45:44;36.83;;;19.95;;
29006;SDS011;16104;48.642;9.008;2023-03-04T04:50:40;44.35;;;22.58;;
29006;SDS011;16104;48.642;9.008;2023-03-04T04:55:35;41.95;;;23.17;;
29006;SDS011;16104;48.642;9.008;2023-03-04T05:00:31;42.85;;;22.95;;
29006;SDS011;16104;48.642;9.008;2023-03-04T05:05:26;42.47;;;21.50;;
29006;SDS011;16104;48.642;9.008;2023-03-04T05:10:22;42.55;;;21.65;;
29006;SDS011;16104;48.642;9.008;2023-03-04T05:15:17;41.13;;;22.38;;
29006;SDS011;16104;48.642;9.008;2023-03-04T05:20:13;38.17;;;20.75;;
29006;SDS011;16104;48.642;9.008;2023-03-04T05:25:09;39.88;;;20.30;;
29006;SDS011;16104;48.642;9.008;2023-03-04T05:30:04;39.30;;;18.85;;
29006;SDS011;16104;48.642;9.008;2023-03-04T05:35:00;39.13;;;20.00;;
29006;SDS011;16104;48.642;9.008;2023-03-04T05:39:56;40.05;;;22.33;;
29006;SDS011;16104;48.642;9.008;2023-03-04T05:44:51;42.05;;;21.77;;
29006;SDS011;16104;48.642;9.008;2023-03-04T05:49:47;39.15;;;21.20;;
29006;SDS011;16104;48.642;9.008;2023-03-04T05:54:42;41.08;;;21.70;;
29006;SDS011;16104;48.642;9.008;2023-03-04T05:59:38;37.20;;;19.65;;
29006;SDS011;16104;48.642;9.008;2023-03-04T06:04:33;43.13;;;20.52;;
29006;SDS011;16104;48.642;9.008;2023-03-04T06:09:29;36.92;;;18.90;;
29006;SDS011;16104;48.642;9.008;2023-03-04T06:14:24;41.17;;;19.90;;
29006;SDS011;16104;48.642;9.008;2023-03-04T06:19:20;37.88;;;18.67;;
29006;SDS011;16104;48.642;9.008;2023-03-04T06:24:16;37.03;;;18.90;;
29006;SDS011;16104;48.642;9.008;2023-03-04T06:29:11;42.00;;;20.75;;
29006;SDS011;16104;48.642;9.008;2023-03-04T06:34:07;36.75;;;17.70;;
29006;SDS011;16104;48.642;9.008;2023-03-04T06:39:03;42.50;;;19.17;;
29006;SDS011;16104;48.642;9.008;2023-03-04T06:44:01;36.20;;;17.83;;
29006;SDS011;16104;48.642;9.008;2023-03-04T06:48:56;36.15;;;18.63;;
29006;SDS011;16104;48.642;9.008;2023-03-04T06:53:52;39.70;;;20.50;;
29006;SDS011;16104;48.642;9.008;2023-03-04T06:58:48;39.95;;;20.90;;
29006;SDS011;16104;48.642;9.008;2023-03-04T07:03:43;43.28;;;22.00;;
29006;SDS011;16104;48.642;9.008;2023-03-04T07:08:40;37.35;;;19.05;;
29006;SDS011;16104;48.642;9.008;2023-03-04T07:13:36;44.17;;;20.45;;
29006;SDS011;16104;48.642;9.008;2023-03-04T07:18:35;42.50;;;21.45;;
29006;SDS011;16104;48.642;9.008;2023-03-04T07:23:31;44.95;;;23.02;;
29006;SDS011;16104;48.642;9.008;2023-03-04T07:28:26;44.30;;;23.08;;
29006;SDS011;16104;48.642;9.008;2023-03-04T07:33:22;45.60;;;22.13;;
29006;SDS011;16104;48.642;9.008;2023-03-04T07:38:17;35.65;;;18.67;;
29006;SDS011;16104;48.642;9.008;2023-03-04T07:43:13;43.05;;;19.42;;
29006;SDS011;16104;48.642;9.008;2023-03-04T07:48:08;39.28;;;20.17;;
29006;SDS011;16104;48.642;9.008;2023-03-04T07:53:04;38.20;;;18.75;;
29006;SDS011;16104;48.642;9.008;2023-03-04T07:57:59;37.03;;;17.95;;
29006;SDS011;16104;48.642;9.008;2023-03-04T08:02:55;36.78;;;17.60;;
29006;SDS011;16104;48.642;9.008;2023-03-04T08:07:50;37.08;;;18.20;;
29006;SDS011;16104;48.642;9.008;2023-03-04T08:12:46;44.15;;;20.40;;
29006;SDS011;16104;48.642;9.008;2023-03-04T08:17:41;37.08;;;19.05;;
29006;SDS011;16104;48.642;9.008;2023-03-04T08:22:37;38.25;;;18.83;;
29006;SDS011;16104;48.642;9.008;2023-03-04T08:27:32;36.35;;;18.35;;
29006;SDS011;16104;48.642;9.008;2023-03-04T08:32:28;33.45;;;16.70;;
29006;SDS011;16104;48.642;9.008;2023-03-04T08:37:24;32.88;;;15.75;;
29006;SDS011;16104;48.642;9.008;2023-03-04T08:42:19;34.05;;;16.42;;
29006;SDS011;16104;48.642;9.008;2023-03-04T08:47:15;32.72;;;16.35;;
29006;SDS011;16104;48.642;9.008;2023-03-04T08:52:10;33.92;;;17.55;;
29006;SDS011;16104;48.642;9.008;2023-03-04T08:57:06;32.88;;;16.50;;
29006;SDS011;16104;48.642;9.008;2023-03-04T09:02:01;32.47;;;16.73;;
29006;SDS011;16104;48.642;9.008;2023-03-04T09:06:57;38.92;;;18.02;;
29006;SDS011;16104;48.642;9.008;2023-03-04T09:11:52;43.55;;;18.75;;
29006;SDS011;16104;48.642;9.008;2023-03-04T09:16:48;38.65;;;18.10;;
29006;SDS011;16104;48.642;9.008;2023-03-04T09:21:43;31.83;;;16.80;;
29006;SDS011;16104;48.642;9.008;2023-03-04T09:26:39;36.05;;;17.50;;
29006;SDS011;16104;48.642;9.008;2023-03-04T09:31:34;33.92;;;16.80;;
29006;SDS011;16104;48.642;9.008;2023-03-04T09:36:30;33.55;;;17.45;;
29006;SDS011;16104;48.642;9.008;2023-03-04T09:41:29;37.15;;;18.10;;
29006;SDS011;16104;48.642;9.008;2023-03-04T09:46:32;32.40;;;17.05;;
29006;SDS011;16104;48.642;9.008;2023-03-04T09:56:40;32.65;;;16.75;;
29006;SDS011;16104;48.642;9.008;2023-03-04T10:01:41;39.03;;;17.58;;
29006;SDS011;16104;48.642;9.008;2023-03-04T10:06:43;38.72;;;19.52;;
29006;SDS011;16104;48.642;9.008;2023-03-04T10:11:46;35.08;;;18.88;;
29006;SDS011;16104;48.642;9.008;2023-03-04T10:16:45;32.53;;;18.45;;
29006;SDS011;16104;48.642;9.008;2023-03-04T10:21:47;36.88;;;20.30;;
29006;SDS011;16104;48.642;9.008;2023-03-04T10:26:44;37.47;;;20.27;;
29006;SDS011;16104;48.642;9.008;2023-03-04T10:31:43;44.70;;;22.90;;
29006;SDS011;16104;48.642;9.008;2023-03-04T10:36:43;38.95;;;21.13;;
29006;SDS011;16104;48.642;9.008;2023-03-04T10:41:59;42.10;;;22.05;;
29006;SDS011;16104;48.642;9.008;2023-03-04T10:46:58;40.50;;;21.33;;
29006;SDS011;16104;48.642;9.008;2023-03-04T11:01:54;40.13;;;21.80;;
29006;SDS011;16104;48.642;9.008;2023-03-04T11:06:49;44.75;;;23.92;;
29006;SDS011;16104;48.642;9.008;2023-03-04T11:11:45;44.42;;;23.88;;
29006;SDS011;16104;48.642;9.008;2023-03-04T11:16:50;49.17;;;27.83;;
29006;SDS011;16104;48.642;9.008;2023-03-04T11:21:51;44.40;;;25.02;;
29006;SDS011;16104;48.642;9.008;2023-03-04T11:47:21;42.80;;;24.25;;
29006;SDS011;16104;48.642;9.008;2023-03-04T11:52:24;44.58;;;24.92;;
29006;SDS011;16104;48.642;9.008;2023-03-04T12:29:38;42.40;;;24.52;;
29006;SDS011;16104;48.642;9.008;2023-03-04T12:45:17;41.67;;;24.10;;
29006;SDS011;16104;48.642;9.008;2023-03-04T12:50:23;43.80;;;25.50;;
29006;SDS011;16104;48.642;9.008;2023-03-04T12:55:37;42.25;;;24.83;;
29006;SDS011;16104;48.642;9.008;2023-03-04T13:05:54;43.58;;;24.80;;
29006;SDS011;16104;48.642;9.008;2023-03-04T13:11:48;43.00;;;24.73;;
29006;SDS011;16104;48.642;9.008;2023-03-04T13:16:42;44.03;;;23.50;;
29006;SDS011;16104;48.642;9.008;2023-03-04T13:21:58;44.40;;;25.17;;
29006;SDS011;16104;48.642;9.008;2023-03-04T13:26:54;45.90;;;25.40;;
29006;SDS011;16104;48.642;9.008;2023-03-04T13:31:57;45.35;;;25.23;;
29006;SDS011;16104;48.642;9.008;2023-03-04T13:36:58;45.13;;;25.85;;
29006;SDS011;16104;48.642;9.008;2023-03-04T13:41:54;51.40;;;25.55;;
29006;SDS011;16104;48.642;9.008;2023-03-04T13:46:50;44.80;;;24.67;;
29006;SDS011;16104;48.642;9.008;2023-03-04T13:51:46;43.00;;;25.25;;
29006;SDS011;16104;48.642;9.008;2023-03-04T13:56:43;46.28;;;26.58;;
29006;SDS011;16104;48.642;9.008;2023-03-04T14:02:15;41.45;;;24.08;;
29006;SDS011;16104;48.642;9.008;2023-03-04T14:12:18;47.53;;;25.40;;
29006;SDS011;16104;48.642;9.008;2023-03-04T14:17:16;49.92;;;27.50;;
29006;SDS011;16104;48.642;9.008;2023-03-04T14:27:27;50.95;;;25.38;;
29006;SDS011;16104;48.642;9.008;2023-03-04T14:32:24;52.15;;;28.25;;
29006;SDS011;16104;48.642;9.008;2023-03-04T14:42:52;45.78;;;25.15;;
29006;SDS011;16104;48.642;9.008;2023-03-04T14:48:02;46.90;;;24.20;;
29006;SDS011;16104;48.642;9.008;2023-03-04T14:58:06;47.33;;;22.98;;
29006;SDS011;16104;48.642;9.008;2023-03-04T15:03:05;45.35;;;21.92;;
29006;SDS011;16104;48.642;9.008;2023-03-04T15:08:19;43.05;;;20.73;;
29006;SDS011;16104;48.642;9.008;2023-03-04T15:13:17;39.35;;;21.17;;
29006;SDS011;16104;48.642;9.008;2023-03-04T15:18:35;43.95;;;21.67;;
29006;SDS011;16104;48.642;9.008;2023-03-04T15:23:31;44.58;;;23.17;;
29006;SDS011;16104;48.642;9.008;2023-03-04T15:28:29;43.95;;;21.98;;
29006;SDS011;16104;48.642;9.008;2023-03-04T15:33:28;45.30;;;21.95;;
29006;SDS011;16104;48.642;9.008;2023-03-04T15:38:24;41.80;;;21.88;;
29006;SDS011;16104;48.642;9.008;2023-03-04T15:43:21;50.35;;;22.25;;
29006;SDS011;16104;48.642;9.008;2023-03-04T15:48:17;48.90;;;21.75;;
29006;SDS011;16104;48.642;9.008;2023-03-04T15:53:18;42.72;;;21.05;;
29006;SDS011;16104;48.642;9.008;2023-03-04T15:58:16;46.75;;;21.38;;
29006;SDS011;16104;48.642;9.008;2023-03-04T16:03:16;45.30;;;21.85;;
29006;SDS011;16104;48.642;9.008;2023-03-04T16:08:14;44.63;;;21.70;;
29006;SDS011;16104;48.642;9.008;2023-03-04T16:13:13;52.97;;;21.75;;
29006;SDS011;16104;48.642;9.008;2023-03-04T16:18:10;45.40;;;20.13;;
29006;SDS011;16104;48.642;9.008;2023-03-04T16:23:12;39.35;;;19.17;;
29006;SDS011;16104;48.642;9.008;2023-03-04T16:28:10;43.95;;;19.15;;
29006;SDS011;16104;48.642;9.008;2023-03-04T16:33:07;38.15;;;17.73;;
29006;SDS011;16104;48.642;9.008;2023-03-04T16:38:09;39.50;;;18.13;;
29006;SDS011;16104;48.642;9.008;2023-03-04T16:43:15;38.75;;;18.25;;
29006;SDS011;16104;48.642;9.008;2023-03-04T16:48:10;39.50;;;18.30;;
29006;SDS011;16104;48.642;9.008;2023-03-04T16:53:15;51.20;;;17.67;;
29006;SDS011;16104;48.642;9.008;2023-03-04T16:58:29;40.92;;;17.13;;
29006;SDS011;16104;48.642;9.008;2023-03-04T17:03:25;42.25;;;16.98;;
29006;SDS011;16104;48.642;9.008;2023-03-04T17:08:20;38.88;;;17.25;;
29006;SDS011;16104;48.642;9.008;2023-03-04T17:13:16;37.55;;;16.45;;
29006;SDS011;16104;48.642;9.008;2023-03-04T17:18:11;38.35;;;17.42;;
29006;SDS011;16104;48.642;9.008;2023-03-04T17:23:07;39.33;;;17.33;;
29006;SDS011;16104;48.642;9.008;2023-03-04T17:28:03;37.40;;;17.10;;
29006;SDS011;16104;48.642;9.008;2023-03-04T17:32:58;35.78;;;16.38;;
29006;SDS011;16104;48.642;9.008;2023-03-04T17:37:54;34.88;;;16.05;;
29006;SDS011;16104;48.642;9.008;2023-03-04T17:42:49;36.20;;;14.50;;
29006;SDS011;16104;48.642;9.008;2023-03-04T17:47:45;32.30;;;14.88;;
29006;SDS011;16104;48.642;9.008;2023-03-04T17:52:40;35.45;;;15.35;;
29006;SDS011;16104;48.642;9.008;2023-03-04T17:57:36;29.02;;;14.20;;
29006;SDS011;16104;48.642;9.008;2023-03-04T18:02:32;34.75;;;14.85;;
29006;SDS011;16104;48.642;9.008;2023-03-04T18:07:27;34.30;;;15.07;;
29006;SDS011;16104;48.642;9.008;2023-03-04T18:12:23;33.08;;;15.35;;
29006;SDS011;16104;48.642;9.008;2023-03-04T18:17:19;42.25;;;16.25;;
29006;SDS011;16104;48.642;9.008;2023-03-04T18:22:14;31.80;;;13.52;;
29006;SDS011;16104;48.642;9.008;2023-03-04T18:27:10;33.55;;;14.65;;
29006;SDS011;16104;48.642;9.008;2023-03-04T18:32:06;29.20;;;14.52;;
29006;SDS011;16104;48.642;9.008;2023-03-04T18:37:01;34.40;;;15.68;;
29006;SDS011;16104;48.642;9.008;2023-03-04T18:41:57;35.30;;;16.75;;
29006;SDS011;16104;48.642;9.008;2023-03-04T18:46:53;30.05;;;15.32;;
29006;SDS011;16104;48.642;9.008;2023-03-04T18:51:50;30.73;;;14.60;;
29006;SDS011;16104;48.642;9.008;2023-03-04T18:56:50;30.70;;;13.45;;
29006;SDS011;16104;48.642;9.008;2023-03-04T19:01:51;37.50;;;15.88;;
29006;SDS011;16104;48.642;9.008;2023-03-04T19:06:48;33.75;;;16.20;;
29006;SDS011;16104;48.642;9.008;2023-03-04T19:11:43;29.58;;;13.88;;
29006;SDS011;16104;48.642;9.008;2023-03-04T19:16:39;37.13;;;16.33;;
29006;SDS011;16104;48.642;9.008;2023-03-04T19:21:35;36.63;;;15.55;;
29006;SDS011;16104;48.642;9.008;2023-03-04T19:26:32;33.88;;;15.60;;
29006;SDS011;16104;48.642;9.008;2023-03-04T19:31:27;38.50;;;15.57;;
29006;SDS011;16104;48.642;9.008;2023-03-04T19:36:23;32.30;;;14.23;;
29006;SDS011;16104;48.642;9.008;2023-03-04T19:41:19;39.08;;;14.63;;
29006;SDS011;16104;48.642;9.008;2023-03-04T19:46:15;36.28;;;14.98;;
29006;SDS011;16104;48.642;9.008;2023-03-04T19:51:14;30.65;;;14.88;;
29006;SDS011;16104;48.642;9.008;2023-03-04T19:56:15;33.08;;;15.98;;
29006;SDS011;16104;48.642;9.008;2023-03-04T20:01:23;30.90;;;14.52;;
29006;SDS011;16104;48.642;9.008;2023-03-04T20:06:21;31.48;;;14.52;;
29006;SDS011;16104;48.642;9.008;2023-03-04T20:11:20;34.13;;;15.52;;
29006;SDS011;16104;48.642;9.008;2023-03-04T20:16:16;35.13;;;15.98;;
29006;SDS011;16104;48.642;9.008;2023-03-04T20:21:12;39.50;;;18.17;;
29006;SDS011;16104;48.642;9.008;2023-03-04T20:26:07;37.75;;;17.70;;
29006;SDS011;16104;48.642;9.008;2023-03-04T20:31:10;36.15;;;17.75;;
29006;SDS011;16104;48.642;9.008;2023-03-04T20:36:27;39.08;;;20.13;;
29006;SDS011;16104;48.642;9.008;2023-03-04T20:41:24;48.28;;;25.65;;
29006;SDS011;16104;48.642;9.008;2023-03-04T20:51:24;43.25;;;21.35;;
29006;SDS011;16104;48.642;9.008;2023-03-04T20:56:20;43.38;;;19.90;;
29006;SDS011;16104;48.642;9.008;2023-03-04T21:01:16;36.05;;;18.95;;
29006;SDS011;16104;48.642;9.008;2023-03-04T21:06:11;43.80;;;19.88;;
29006;SDS011;16104;48.642;9.008;2023-03-04T21:11:11;42.42;;;19.98;;
29006;SDS011;16104;48.642;9.008;2023-03-04T21:16:12;39.35;;;19.10;;
29006;SDS011;16104;48.642;9.008;2023-03-04T21:21:10;35.33;;;17.88;;
29006;SDS011;16104;48.642;9.008;2023-03-04T21:26:18;37.55;;;18.85;;
29006;SDS011;16104;48.642;9.008;2023-03-04T21:31:15;33.13;;;15.65;;
29006;SDS011;16104;48.642;9.008;2023-03-04T21:36:13;41.05;;;18.25;;
29006;SDS011;16104;48.642;9.008;2023-03-04T21:41:10;37.25;;;19.23;;
29006;SDS011;16104;48.642;9.008;2023-03-04T21:46:16;38.60;;;16.38;;
29006;SDS011;16104;48.642;9.008;2023-03-04T21:51:12;42.55;;;18.35;;
29006;SDS011;16104;48.642;9.008;2023-03-04T21:56:10;37.00;;;17.45;;
29006;SDS011;16104;48.642;9.008;2023-03-04T22:01:10;42.88;;;18.70;;
29006;SDS011;16104;48.642;9.008;2023-03-04T22:06:08;39.42;;;17.80;;
29006;SDS011;16104;48.642;9.008;2023-03-04T22:11:05;37.92;;;19.33;;
29006;SDS011;16104;48.642;9.008;2023-03-04T22:16:02;35.30;;;18.58;;
29006;SDS011;16104;48.642;9.008;2023-03-04T22:21:02;33.03;;;17.50;;
29006;SDS011;16104;48.642;9.008;2023-03-04T22:26:00;39.55;;;19.42;;
29006;SDS011;16104;48.642;9.008;2023-03-04T22:31:00;39.60;;;18.85;;
29006;SDS011;16104;48.642;9.008;2023-03-04T22:35:56;42.17;;;19.33;;
29006;SDS011;16104;48.642;9.008;2023-03-04T22:40:52;44.28;;;20.45;;
29006;SDS011;16104;48.642;9.008;2023-03-04T22:45:47;44.38;;;20.80;;
29006;SDS011;16104;48.642;9.008;2023-03-04T22:50:43;44.58;;;21.85;;
29006;SDS011;16104;48.642;9.008;2023-03-04T22:55:39;41.90;;;18.75;;
29006;SDS011;16104;48.642;9.008;2023-03-04T23:00:34;42.22;;;21.13;;
29006;SDS011;16104;48.642;9.008;2023-03-04T23:05:31;43.13;;;21.02;;
29006;SDS011;16104;48.642;9.008;2023-03-04T23:10:27;56.53;;;26.20;;
29006;SDS011;16104;48.642;9.008;2023-03-04T23:15:22;46.95;;;23.73;;
29006;SDS011;16104;48.642;9.008;2023-03-04T23:20:19;41.85;;;21.10;;
29006;SDS011;16104;48.642;9.008;2023-03-04T23:25:15;51.58;;;24.02;;
29006;SDS011;16104;48.642;9.008;2023-03-04T23:30:13;43.42;;;21.45;;
29006;SDS011;16104;48.642;9.008;2023-03-04T23:35:10;44.65;;;21.77;;
29006;SDS011;16104;48.642;9.008;2023-03-04T23:40:06;45.05;;;22.70;;
29006;SDS011;16104;48.642;9.008;2023-03-04T23:45:04;42.03;;;21.17;;
29006;SDS011;16104;48.642;9.008;2023-03-04T23:50:00;44.67;;;22.70;;
29006;SDS011;16104;48.642;9.008;2023-03-04T23:54:57;46.90;;;23.05;;
29006;SDS011;16104;48.642;9.008;2023-03-04T23:59:53;40.95;;;22.52;;
